Time;durP1;ratioP1;P1;durP2;ratioP2;P2;SDS_P1;SDS_P2;PMS_P1;PMS_P2;Temp;Humidity;BMP_temperature;BMP_pressure;BME280_temperature;BME280_humidity;BME280_pressure;Samples;Min_cycle;Max_cycle;Signal;HPM_P1;HPM_P2
2022/10/24 00:00:06;;;;;;;6.47;0.70;;;15.40;99.90;;;;;;4962454;28;20542;-83
2022/10/24 00:02:31;;;;;;;3.83;0.93;;;15.40;99.90;;;;;;4947360;28;20042;-82
2022/10/24 00:04:57;;;;;;;5.68;1.10;;;15.40;99.90;;;;;;4965636;28;20449;-83
2022/10/24 00:07:22;;;;;;;2.10;0.70;;;15.40;99.90;;;;;;4961262;28;20057;-83
2022/10/24 00:09:48;;;;;;;3.80;0.75;;;15.40;99.90;;;;;;4945077;28;20694;-83
2022/10/24 00:12:16;;;;;;;4.57;0.73;;;15.30;99.90;;;;;;4957621;28;20492;-83
2022/10/24 00:14:41;;;;;;;4.55;0.80;;;15.60;99.90;;;;;;4947544;28;20042;-83
2022/10/24 00:17:07;;;;;;;7.28;0.63;;;15.30;99.90;;;;;;4968037;28;20046;-83
2022/10/24 00:19:32;;;;;;;6.45;1.02;;;15.30;99.90;;;;;;4961472;28;20043;-83
2022/10/24 00:21:58;;;;;;;3.33;0.50;;;15.40;99.90;;;;;;4949252;28;20042;-84
2022/10/24 00:24:24;;;;;;;4.78;1.23;;;15.40;99.90;;;;;;4948735;28;20034;-83
2022/10/24 00:26:50;;;;;;;5.25;0.88;;;15.40;99.90;;;;;;4961262;28;20124;-83
2022/10/24 00:29:15;;;;;;;5.03;0.88;;;15.40;99.90;;;;;;4961143;28;20134;-83
2022/10/24 00:31:41;;;;;;;6.13;0.90;;;15.40;99.90;;;;;;4960703;28;20051;-83
2022/10/24 00:34:07;;;;;;;4.85;0.75;;;15.40;99.90;;;;;;4961157;28;20046;-83
2022/10/24 00:36:32;;;;;;;6.97;1.38;;;15.40;99.90;;;;;;4946913;28;20042;-83
2022/10/24 00:38:58;;;;;;;5.40;1.25;;;15.50;99.90;;;;;;4963462;28;20042;-83
2022/10/24 00:41:35;;;;;;;3.58;0.60;;;15.40;99.90;;;;;;4946226;28;20046;-83
2022/10/24 00:44:24;;;;;;;10.73;1.25;;;15.40;99.90;;;;;;4950661;28;20050;-83
2022/10/24 00:47:06;;;;;;;3.28;0.85;;;15.40;99.90;;;;;;4950122;28;20042;-83
2022/10/24 00:49:41;;;;;;;4.85;1.30;;;15.40;99.90;;;;;;4952180;28;20137;-83
2022/10/24 00:52:08;;;;;;;3.08;0.93;;;15.30;99.90;;;;;;4962163;28;20495;-83
2022/10/24 00:54:37;;;;;;;4.22;0.68;;;15.40;99.90;;;;;;4964572;28;20041;-83
2022/10/24 00:57:14;;;;;;;9.02;1.35;;;15.30;99.90;;;;;;4962477;28;20130;-83
2022/10/24 00:59:43;;;;;;;6.53;1.25;;;15.40;99.90;;;;;;4961412;28;20034;-83
2022/10/24 01:02:09;;;;;;;7.40;0.90;;;15.30;99.90;;;;;;4949256;28;20498;-83
2022/10/24 01:04:35;;;;;;;2.88;0.93;;;15.40;99.90;;;;;;4948426;28;20070;-83
2022/10/24 01:07:14;;;;;;;10.32;1.15;;;15.40;99.90;;;;;;4959854;28;20065;-83
2022/10/24 01:09:49;;;;;;;8.07;1.05;;;15.70;99.90;;;;;;4961325;28;20041;-83
2022/10/24 01:12:43;;;;;;;5.70;1.57;;;15.40;99.90;;;;;;4963087;28;20042;-83
2022/10/24 01:15:36;;;;;;;8.80;1.17;;;15.40;99.90;;;;;;4947770;28;20385;-83
2022/10/24 01:18:21;;;;;;;7.78;1.40;;;15.40;99.90;;;;;;4950577;28;20093;-83
2022/10/24 01:20:55;;;;;;;6.70;1.67;;;15.50;99.90;;;;;;4951300;28;20062;-83
2022/10/24 01:23:46;;;;;;;7.60;2.03;;;15.50;99.90;;;;;;4947781;28;20046;-83
2022/10/24 01:26:44;;;;;;;7.63;1.65;;;15.50;99.90;;;;;;4946142;28;20038;-83
2022/10/24 01:29:22;;;;;;;11.40;1.70;;;15.60;99.90;;;;;;4944711;28;20080;-83
2022/10/24 01:32:00;;;;;;;9.88;2.03;;;15.60;99.90;;;;;;4965225;28;20064;-83
2022/10/24 01:34:37;;;;;;;5.55;1.92;;;15.60;99.90;;;;;;4951653;28;20137;-83
2022/10/24 01:37:14;;;;;;;7.63;2.65;;;15.60;99.90;;;;;;4966601;28;20133;-83
2022/10/24 01:39:49;;;;;;;9.35;2.75;;;15.60;99.90;;;;;;4969136;28;20035;-83
2022/10/24 01:42:19;;;;;;;5.72;1.38;;;15.60;99.90;;;;;;4966081;28;20045;-82
2022/10/24 01:44:49;;;;;;;7.07;2.33;;;15.60;99.90;;;;;;4961665;28;20146;-83
2022/10/24 01:47:29;;;;;;;5.90;1.83;;;15.60;99.90;;;;;;4965405;28;20525;-83
2022/10/24 01:50:06;;;;;;;5.00;1.48;;;15.50;99.90;;;;;;4949693;28;20042;-83
2022/10/24 01:52:36;;;;;;;6.88;1.80;;;15.50;99.90;;;;;;4964483;28;20113;-83
2022/10/24 01:55:03;;;;;;;7.57;1.63;;;15.50;99.90;;;;;;4951904;28;20038;-83
2022/10/24 01:57:31;;;;;;;7.63;1.33;;;15.50;99.90;;;;;;4953790;28;20101;-83
2022/10/24 01:59:56;;;;;;;7.43;1.42;;;15.50;99.90;;;;;;4946675;28;20495;-83
2022/10/24 02:02:26;;;;;;;7.05;1.25;;;15.50;99.90;;;;;;4950109;28;20084;-83
2022/10/24 02:05:17;;;;;;;5.65;1.80;;;15.50;99.90;;;;;;4952787;28;20080;-82
2022/10/24 02:07:46;;;;;;;10.80;1.88;;;15.50;99.90;;;;;;4948563;28;20054;-83
2022/10/24 02:10:21;;;;;;;6.47;2.35;;;15.50;99.90;;;;;;4963229;28;20035;-83
2022/10/24 02:12:56;;;;;;;9.57;2.40;;;15.50;99.90;;;;;;4968207;28;20093;-82
2022/10/24 02:15:30;;;;;;;;;;;15.50;99.90;;;;;;4952366;28;20553;-83
2022/10/24 02:17:56;;;;;;;6.03;1.75;;;15.50;99.90;;;;;;4965503;28;19996;-83
2022/10/24 02:20:31;;;;;;;6.65;1.40;;;15.40;99.90;;;;;;4948178;28;20066;-83
2022/10/24 02:23:04;;;;;;;9.85;1.13;;;15.30;99.90;;;;;;4981313;28;20562;-83
2022/10/24 02:25:33;;;;;;;5.05;1.35;;;15.40;99.90;;;;;;4966556;28;20507;-83
2022/10/24 02:28:07;;;;;;;6.03;1.35;;;15.40;99.90;;;;;;4967425;28;20034;-83
2022/10/24 02:30:38;;;;;;;5.55;1.60;;;15.40;99.90;;;;;;4966321;28;20082;-82
2022/10/24 02:33:04;;;;;;;8.25;1.23;;;15.50;99.90;;;;;;4946348;28;20466;-83
2022/10/24 02:35:33;;;;;;;3.97;1.45;;;15.50;99.90;;;;;;4949488;28;20077;-83
2022/10/24 02:38:06;;;;;;;7.50;1.92;;;15.40;99.90;;;;;;4963730;28;20049;-83
2022/10/24 02:40:32;;;;;;;3.92;1.15;;;15.50;99.90;;;;;;4949705;28;20854;-83
2022/10/24 02:43:00;;;;;;;3.95;1.08;;;15.40;99.90;;;;;;4951772;28;20265;-83
2022/10/24 02:45:27;;;;;;;5.68;1.52;;;15.50;99.90;;;;;;4961565;28;20118;-83
2022/10/24 02:47:58;;;;;;;7.03;1.73;;;15.60;99.90;;;;;;4951337;28;20078;-83
2022/10/24 02:50:24;;;;;;;4.82;1.00;;;15.40;99.90;;;;;;4968860;28;20042;-83
2022/10/24 02:52:50;;;;;;;5.45;1.40;;;15.40;99.90;;;;;;4967004;28;20093;-83
2022/10/24 02:55:15;;;;;;;10.43;1.33;;;15.40;99.90;;;;;;4958297;28;20046;-83
2022/10/24 02:57:41;;;;;;;9.52;1.48;;;15.30;99.90;;;;;;4960505;28;20950;-84
2022/10/24 03:00:07;;;;;;;7.20;1.45;;;15.40;99.90;;;;;;4962136;28;20042;-83
2022/10/24 03:02:33;;;;;;;7.30;1.52;;;15.30;99.90;;;;;;4946087;28;20674;-83
2022/10/24 03:04:58;;;;;;;6.93;1.25;;;15.30;99.90;;;;;;4964577;28;20069;-83
2022/10/24 03:07:24;;;;;;;9.88;1.50;;;15.30;99.90;;;;;;4980733;28;20500;-83
2022/10/24 03:09:49;;;;;;;4.03;1.40;;;15.30;99.90;;;;;;4949364;28;20073;-83
2022/10/24 03:12:16;;;;;;;7.70;1.40;;;15.30;99.90;;;;;;4962421;28;20066;-83
2022/10/24 03:14:42;;;;;;;5.75;1.65;;;15.30;99.90;;;;;;4958083;28;20039;-83
2022/10/24 03:17:08;;;;;;;5.57;1.40;;;15.30;99.90;;;;;;4949254;28;20061;-83
2022/10/24 03:19:33;;;;;;;10.07;1.70;;;15.40;99.90;;;;;;4964327;28;20043;-83
2022/10/24 03:21:59;;;;;;;6.32;0.80;;;15.40;99.90;;;;;;4963874;28;20034;-83
2022/10/24 03:24:24;;;;;;;6.97;1.30;;;15.30;99.90;;;;;;4948272;28;20096;-83
2022/10/24 03:26:51;;;;;;;5.88;1.45;;;15.40;99.90;;;;;;4950347;28;20031;-83
2022/10/24 03:29:20;;;;;;;7.30;1.35;;;15.40;99.90;;;;;;4949909;28;20051;-83
2022/10/24 03:31:46;;;;;;;5.85;1.73;;;15.40;99.90;;;;;;4962778;28;20122;-83
2022/10/24 03:34:12;;;;;;;11.13;2.95;;;15.30;99.90;;;;;;4961243;28;20104;-83
2022/10/24 03:36:37;;;;;;;5.13;1.60;;;15.30;99.90;;;;;;4964331;28;20070;-83
2022/10/24 03:39:03;;;;;;;8.55;1.77;;;15.30;99.90;;;;;;4961880;28;20089;-83
2022/10/24 03:41:29;;;;;;;10.27;1.67;;;15.30;99.90;;;;;;4952893;28;20128;-83
2022/10/24 03:43:54;;;;;;;9.32;1.60;;;15.40;99.90;;;;;;4949675;28;20046;-83
2022/10/24 03:46:20;;;;;;;11.65;1.70;;;15.40;99.90;;;;;;4964037;28;20042;-83
2022/10/24 03:48:45;;;;;;;8.38;1.42;;;15.40;99.90;;;;;;4958482;28;20074;-83
2022/10/24 03:51:11;;;;;;;7.82;1.75;;;15.30;99.90;;;;;;4961460;28;20058;-84
2022/10/24 03:53:37;;;;;;;6.85;2.28;;;15.30;99.90;;;;;;4949566;28;20066;-83
2022/10/24 03:56:05;;;;;;;10.77;1.35;;;15.20;99.90;;;;;;4960906;28;20133;-84
2022/10/24 03:58:31;;;;;;;5.53;1.45;;;15.40;99.90;;;;;;4951700;28;20683;-84
2022/10/24 04:00:59;;;;;;;9.57;1.48;;;15.40;99.90;;;;;;4964054;28;20054;-84
2022/10/24 04:03:26;;;;;;;6.85;1.45;;;15.40;99.90;;;;;;4948024;28;20066;-85
2022/10/24 04:05:57;;;;;;;4.07;1.10;;;15.30;99.90;;;;;;4952217;28;20074;-84
2022/10/24 04:08:35;;;;;;;5.85;1.05;;;15.30;99.90;;;;;;4963742;28;20038;-85
2022/10/24 04:11:08;;;;;;;4.47;1.25;;;15.30;99.90;;;;;;4965938;28;20038;-86
2022/10/24 04:13:33;;;;;;;2.88;1.23;;;15.30;99.90;;;;;;4950286;28;20074;-84
2022/10/24 04:16:02;;;;;;;4.45;1.25;;;15.20;99.90;;;;;;4977374;28;20916;-84
2022/10/24 04:18:37;;;;;;;10.13;1.85;;;15.20;99.90;;;;;;4948209;28;20681;-84
2022/10/24 04:21:03;;;;;;;7.83;1.47;;;15.20;99.90;;;;;;4952360;28;20050;-84
2022/10/24 04:23:39;;;;;;;4.97;1.30;;;15.20;99.90;;;;;;4952630;28;20038;-83
2022/10/24 04:26:06;;;;;;;6.78;1.50;;;15.20;99.90;;;;;;4945540;28;20050;-84
2022/10/24 04:28:32;;;;;;;9.55;2.10;;;15.20;99.90;;;;;;4965653;28;20046;-84
2022/10/24 04:30:58;;;;;;;4.88;1.08;;;15.30;99.90;;;;;;4961903;28;20045;-83
2022/10/24 04:33:54;;;;;;;5.47;1.10;;;15.20;99.90;;;;;;4950234;28;20402;-84
2022/10/24 04:36:27;;;;;;;3.55;1.27;;;15.10;99.90;;;;;;4981137;28;20042;-85
2022/10/24 04:42:58;;;;;;;3.92;1.13;;;15.10;99.90;;;;;;4981760;28;20921;-85
2022/10/24 04:45:48;;;;;;;7.55;1.23;;;15.00;99.90;;;;;;4965278;28;20059;-86
2022/10/24 04:48:36;;;;;;;12.07;1.20;;;15.00;99.90;;;;;;4974659;28;20074;-85
2022/10/24 04:51:02;;;;;;;7.07;1.60;;;14.90;99.90;;;;;;4958383;28;20046;-85
2022/10/24 04:53:30;;;;;;;5.00;0.98;;;15.00;99.90;;;;;;4962229;28;20104;-83
2022/10/24 04:55:56;;;;;;;6.50;1.60;;;15.10;99.90;;;;;;4949274;28;20042;-83
2022/10/24 04:58:22;;;;;;;4.00;1.13;;;15.00;99.90;;;;;;4953099;28;20076;-83
2022/10/24 05:00:51;;;;;;;10.50;1.05;;;14.90;99.90;;;;;;4949939;28;20491;-84
2022/10/24 05:03:19;;;;;;;10.02;1.08;;;14.90;99.90;;;;;;4951835;28;20047;-84
2022/10/24 05:05:46;;;;;;;7.00;1.20;;;15.30;99.90;;;;;;4964758;28;20039;-84
2022/10/24 05:08:12;;;;;;;6.35;1.05;;;15.20;99.90;;;;;;4954330;28;20070;-87
2022/10/24 05:10:37;;;;;;;9.35;1.50;;;14.80;99.90;;;;;;4957405;28;20117;-84
2022/10/24 05:13:06;;;;;;;6.72;1.10;;;14.90;99.90;;;;;;4953537;28;20463;-86
2022/10/24 05:16:16;;;;;;;11.30;1.20;;;14.80;99.90;;;;;;4948508;28;20104;-88
2022/10/24 05:23:14;;;;;;;7.45;1.75;;;14.80;99.90;;;;;;4932603;29;20067;-87
2022/10/24 05:26:18;;;;;;;8.10;0.85;;;14.80;99.90;;;;;;4886673;29;20060;-84
2022/10/24 05:28:46;;;;;;;7.47;1.38;;;14.80;99.90;;;;;;4901996;29;20048;-88
2022/10/24 05:31:23;;;;;;;5.75;1.00;;;14.80;99.90;;;;;;4900883;29;20500;-85
2022/10/24 05:33:52;;;;;;;7.97;1.48;;;14.70;99.90;;;;;;4930688;28;20658;-83
2022/10/24 05:36:28;;;;;;;6.45;0.98;;;14.70;99.90;;;;;;4939983;28;20044;-85
2022/10/24 05:38:55;;;;;;;6.65;1.55;;;14.80;99.90;;;;;;4960894;28;20652;-83
2022/10/24 05:41:58;;;;;;;10.27;0.90;;;14.80;99.90;;;;;;4947064;28;20038;-83
2022/10/24 05:44:26;;;;;;;9.00;1.15;;;14.70;99.90;;;;;;4943981;28;20582;-82
2022/10/24 05:46:52;;;;;;;4.05;0.52;;;14.70;99.90;;;;;;4958697;28;20051;-83
2022/10/24 05:49:18;;;;;;;8.88;2.05;;;14.70;99.90;;;;;;4949998;28;20584;-84
2022/10/24 05:51:44;;;;;;;5.22;1.00;;;14.70;99.90;;;;;;4961277;28;20035;-83
2022/10/24 05:54:12;;;;;;;6.18;0.80;;;14.80;99.90;;;;;;4938812;28;20102;-84
2022/10/24 05:56:38;;;;;;;8.20;0.82;;;14.80;99.90;;;;;;4943902;28;20042;-83
2022/10/24 05:59:03;;;;;;;7.70;1.40;;;14.80;99.90;;;;;;4940641;28;20049;-83
2022/10/24 06:01:30;;;;;;;5.60;0.88;;;14.90;99.90;;;;;;4957452;28;20124;-83
2022/10/24 06:03:55;;;;;;;8.18;1.20;;;15.60;99.90;;;;;;4937994;28;20046;-83
2022/10/24 06:06:22;;;;;;;7.80;0.85;;;14.90;99.90;;;;;;4941169;28;20072;-83
2022/10/24 06:08:49;;;;;;;4.85;0.80;;;14.90;99.90;;;;;;4956506;28;20030;-83
2022/10/24 06:11:14;;;;;;;5.50;1.00;;;15.00;99.90;;;;;;4957532;28;20042;-83
2022/10/24 06:13:40;;;;;;;8.93;1.50;;;15.00;99.90;;;;;;4957531;28;20043;-84
2022/10/24 06:16:06;;;;;;;8.68;1.02;;;15.00;99.90;;;;;;4953872;28;20093;-83
2022/10/24 06:18:32;;;;;;;6.15;1.08;;;15.10;99.90;;;;;;4942950;28;20117;-84
2022/10/24 06:21:02;;;;;;;4.93;1.13;;;15.30;99.90;;;;;;4948198;28;20520;-83
2022/10/24 06:23:28;;;;;;;5.78;1.10;;;15.10;99.90;;;;;;4946261;28;20063;-84
2022/10/24 06:25:54;;;;;;;4.97;0.90;;;15.00;99.90;;;;;;4947457;28;20592;-83
2022/10/24 06:28:20;;;;;;;10.10;1.25;;;15.00;99.90;;;;;;4953122;28;20174;-84
2022/10/24 06:30:48;;;;;;;8.60;1.15;;;15.00;99.90;;;;;;4963026;28;20031;-84
2022/10/24 06:33:14;;;;;;;3.28;0.93;;;15.00;99.90;;;;;;4955323;28;20030;-84
2022/10/24 06:35:40;;;;;;;9.25;1.30;;;15.00;99.90;;;;;;4965988;28;20108;-83
2022/10/24 06:38:05;;;;;;;5.25;0.88;;;15.00;99.90;;;;;;4949081;28;20038;-84
2022/10/24 06:40:31;;;;;;;7.22;1.48;;;15.10;99.90;;;;;;4946598;28;20054;-83
2022/10/24 06:42:57;;;;;;;5.78;1.13;;;15.00;99.90;;;;;;4963391;28;20046;-84
2022/10/24 06:45:22;;;;;;;7.15;1.13;;;15.00;99.90;;;;;;4951462;28;20046;-84
2022/10/24 06:47:49;;;;;;;5.72;1.20;;;15.00;99.90;;;;;;4961355;28;20038;-84
2022/10/24 06:50:15;;;;;;;10.43;1.10;;;15.00;99.90;;;;;;4964202;28;20049;-84
2022/10/24 06:52:41;;;;;;;9.93;1.50;;;15.10;99.90;;;;;;4963715;28;20549;-84
2022/10/24 06:55:07;;;;;;;7.55;0.95;;;15.10;99.90;;;;;;4949888;28;20035;-84
2022/10/24 06:57:32;;;;;;;4.68;0.80;;;15.10;99.90;;;;;;4962504;28;20049;-84
2022/10/24 06:59:58;;;;;;;5.53;0.90;;;15.20;99.90;;;;;;4965000;28;20038;-83
2022/10/24 07:02:29;;;;;;;3.85;1.08;;;15.20;99.90;;;;;;4966546;28;20046;-83
2022/10/24 07:04:56;;;;;;;4.88;0.80;;;15.30;99.90;;;;;;4953988;28;20038;-84
2022/10/24 07:07:22;;;;;;;5.30;0.90;;;15.30;99.90;;;;;;4962445;28;20043;-84
2022/10/24 07:09:53;;;;;;;8.05;1.23;;;15.30;99.90;;;;;;4949644;28;20130;-83
2022/10/24 07:12:20;;;;;;;9.70;0.88;;;15.40;99.90;;;;;;4953744;28;20130;-83
2022/10/24 07:14:47;;;;;;;5.25;1.65;;;15.30;99.90;;;;;;4958628;28;20145;-84
2022/10/24 07:17:13;;;;;;;5.05;0.52;;;15.40;99.90;;;;;;4949646;28;20869;-83
2022/10/24 07:19:38;;;;;;;3.95;0.90;;;15.40;99.90;;;;;;4964654;28;20073;-84
2022/10/24 07:22:04;;;;;;;7.38;1.40;;;15.40;99.90;;;;;;4963090;28;20041;-83
2022/10/24 07:24:30;;;;;;;7.68;1.42;;;15.50;99.90;;;;;;4947670;28;20042;-84
2022/10/24 07:26:56;;;;;;;12.23;0.80;;;15.50;99.90;;;;;;4980006;28;20039;-84
2022/10/24 07:29:21;;;;;;;5.60;0.93;;;15.00;99.90;;;;;;4962708;28;20125;-84
2022/10/24 07:31:47;;;;;;;10.77;1.45;;;15.70;99.90;;;;;;4965782;28;20039;-83
2022/10/24 07:34:13;;;;;;;4.63;0.77;;;15.70;99.90;;;;;;4961223;28;20061;-84
2022/10/24 07:36:39;;;;;;;9.50;1.05;;;15.70;99.90;;;;;;4963465;28;20057;-84
2022/10/24 07:39:04;;;;;;;5.05;0.98;;;15.70;99.90;;;;;;4962991;28;20117;-83
2022/10/24 07:41:31;;;;;;;8.80;1.42;;;15.70;99.90;;;;;;4964513;28;20093;-83
2022/10/24 07:43:58;;;;;;;9.98;1.70;;;15.70;99.90;;;;;;4955395;28;20128;-84
2022/10/24 07:46:24;;;;;;;5.85;0.75;;;15.80;99.90;;;;;;4946584;28;20129;-84
2022/10/24 07:48:51;;;;;;;4.85;1.15;;;15.80;99.90;;;;;;4964226;28;20048;-84
2022/10/24 07:51:20;;;;;;;6.95;1.20;;;15.90;99.90;;;;;;4964258;28;21903;-84
2022/10/24 07:53:46;;;;;;;8.15;1.35;;;15.90;99.90;;;;;;4961290;28;20042;-84
2022/10/24 07:56:16;;;;;;;7.03;0.77;;;15.90;99.90;;;;;;4955946;28;20048;-84
2022/10/24 07:58:43;;;;;;;5.05;0.82;;;15.90;99.90;;;;;;4962153;28;20053;-83
2022/10/24 08:01:14;;;;;;;8.20;1.42;;;15.90;99.90;;;;;;4979340;28;20054;-84
2022/10/24 08:03:40;;;;;;;6.45;1.10;;;15.90;99.90;;;;;;4962397;28;20562;-83
2022/10/24 08:06:08;;;;;;;8.93;1.45;;;15.90;99.90;;;;;;4963752;28;20491;-84
2022/10/24 08:08:34;;;;;;;10.02;1.38;;;15.90;99.90;;;;;;4960843;28;20454;-84
2022/10/24 08:11:01;;;;;;;11.73;2.03;;;15.90;99.90;;;;;;4946801;28;20065;-83
2022/10/24 08:13:26;;;;;;;9.48;1.35;;;16.00;99.90;;;;;;4944102;28;20035;-84
2022/10/24 08:15:52;;;;;;;6.45;0.85;;;16.00;99.90;;;;;;4944097;28;20492;-83
2022/10/24 08:18:17;;;;;;;9.93;1.50;;;16.10;99.90;;;;;;4956861;28;20120;-84
2022/10/24 08:20:43;;;;;;;8.73;0.90;;;16.10;99.90;;;;;;4962011;28;20043;-84
2022/10/24 08:23:08;;;;;;;7.95;1.00;;;16.20;99.90;;;;;;4945454;28;20049;-84
2022/10/24 08:25:34;;;;;;;17.80;1.88;;;16.20;99.90;;;;;;4947059;28;20055;-84
2022/10/24 08:28:00;;;;;;;6.28;1.00;;;16.20;99.90;;;;;;4948197;28;20038;-84
2022/10/24 08:30:25;;;;;;;13.82;1.38;;;16.20;99.90;;;;;;4960836;28;20089;-84
2022/10/24 08:32:51;;;;;;;8.55;1.15;;;16.20;99.90;;;;;;4947688;28;20411;-84
2022/10/24 08:35:18;;;;;;;6.53;0.90;;;16.20;99.90;;;;;;4952028;28;20038;-84
2022/10/24 08:37:44;;;;;;;26.92;2.40;;;16.20;99.90;;;;;;4967356;28;20096;-84
2022/10/24 08:40:16;;;;;;;9.00;1.67;;;16.20;99.90;;;;;;4947622;28;20050;-84
2022/10/24 08:42:46;;;;;;;13.63;1.23;;;16.30;99.90;;;;;;4964127;28;20092;-84
2022/10/24 08:45:18;;;;;;;6.82;1.17;;;16.30;99.90;;;;;;4966860;28;20567;-84
2022/10/24 08:47:53;;;;;;;8.20;1.88;;;16.40;99.90;;;;;;4966855;28;20060;-84
2022/10/24 08:50:32;;;;;;;5.78;0.68;;;16.50;99.90;;;;;;4967702;28;20051;-83
2022/10/24 08:53:17;;;;;;;10.27;1.20;;;16.60;99.90;;;;;;4972432;28;20035;-84
2022/10/24 08:55:44;;;;;;;35.50;2.40;;;16.60;99.90;;;;;;4969486;28;20050;-84
2022/10/24 08:58:32;;;;;;;7.15;1.10;;;16.70;99.90;;;;;;4957666;28;20387;-84
2022/10/24 09:01:01;;;;;;;9.82;1.70;;;16.90;99.90;;;;;;4967398;28;20046;-84
2022/10/24 09:03:43;;;;;;;15.98;1.50;;;17.00;99.90;;;;;;4964684;28;20039;-84
2022/10/24 09:06:23;;;;;;;7.63;1.45;;;17.10;99.90;;;;;;4962992;28;20046;-84
2022/10/24 09:08:51;;;;;;;5.22;0.90;;;17.10;99.90;;;;;;4966469;28;20530;-84
2022/10/24 09:11:25;;;;;;;5.68;1.30;;;17.20;99.90;;;;;;4954626;28;20045;-84
2022/10/24 09:13:51;;;;;;;14.95;1.85;;;17.20;99.90;;;;;;4966866;28;20117;-84
2022/10/24 09:16:21;;;;;;;7.63;1.08;;;17.20;99.90;;;;;;4950476;28;20125;-84
2022/10/24 09:18:50;;;;;;;25.15;1.67;;;17.10;99.90;;;;;;4952289;28;20057;-84
2022/10/24 09:21:16;;;;;;;15.30;1.67;;;17.10;99.90;;;;;;4956279;28;20638;-84
2022/10/24 09:23:44;;;;;;;15.95;2.25;;;17.10;99.90;;;;;;4966017;28;20046;-84
2022/10/24 09:26:34;;;;;;;7.00;0.80;;;17.10;99.90;;;;;;4945982;28;20039;-84
2022/10/24 09:29:00;;;;;;;7.72;1.33;;;17.10;99.90;;;;;;4982698;28;20185;-84
2022/10/24 09:31:26;;;;;;;6.28;0.88;;;17.10;99.90;;;;;;4955476;28;20133;-84
2022/10/24 09:33:52;;;;;;;19.25;1.77;;;17.00;99.90;;;;;;4982417;28;20045;-84
2022/10/24 09:36:20;;;;;;;11.38;1.17;;;16.90;99.90;;;;;;4982342;28;20038;-84
2022/10/24 09:38:47;;;;;;;7.47;1.00;;;17.00;99.90;;;;;;4950427;28;20073;-83
2022/10/24 09:41:28;;;;;;;14.60;2.00;;;17.00;99.90;;;;;;4965446;28;20050;-83
2022/10/24 09:43:56;;;;;;;14.35;1.13;;;17.00;99.90;;;;;;4971933;28;20100;-84
2022/10/24 09:46:28;;;;;;;9.05;1.38;;;17.10;99.90;;;;;;4963731;28;20035;-84
2022/10/24 09:49:05;;;;;;;7.55;1.15;;;17.10;99.90;;;;;;4964716;28;20057;-84
2022/10/24 09:51:36;;;;;;;10.80;1.33;;;17.10;99.90;;;;;;4955336;28;20038;-83
2022/10/24 09:54:19;;;;;;;7.22;0.80;;;17.10;99.90;;;;;;4952453;28;20451;-84
2022/10/24 09:56:55;;;;;;;16.25;2.13;;;17.20;99.90;;;;;;4971220;28;20046;-84
2022/10/24 09:59:40;;;;;;;14.18;1.00;;;17.30;99.90;;;;;;4948837;28;20380;-84
2022/10/24 10:02:25;;;;;;;12.13;0.77;;;17.30;99.90;;;;;;4951096;28;20074;-84
2022/10/24 10:05:03;;;;;;;11.98;1.40;;;17.40;99.90;;;;;;4967272;28;20515;-84
2022/10/24 10:07:31;;;;;;;10.73;0.95;;;17.30;99.90;;;;;;4969652;28;20034;-84
2022/10/24 10:10:01;;;;;;;14.48;2.13;;;17.30;99.90;;;;;;4955879;28;20046;-84
2022/10/24 10:12:37;;;;;;;19.67;1.90;;;17.30;99.90;;;;;;4966664;28;20034;-84
2022/10/24 10:15:18;;;;;;;6.13;0.95;;;17.40;99.90;;;;;;4970894;28;20495;-84
2022/10/24 10:17:56;;;;;;;7.35;0.95;;;17.30;99.90;;;;;;4981098;28;20173;-83
2022/10/24 10:20:27;;;;;;;14.73;1.25;;;17.30;99.90;;;;;;4971394;28;20035;-84
2022/10/24 10:23:24;;;;;;;13.05;1.00;;;17.40;99.90;;;;;;4969482;28;20766;-84
2022/10/24 10:26:19;;;;;;;4.65;1.10;;;17.40;99.90;;;;;;4942601;28;20051;-84
2022/10/24 10:28:57;;;;;;;5.63;0.70;;;17.40;99.90;;;;;;4946785;28;20046;-84
2022/10/24 10:31:42;;;;;;;5.63;0.75;;;17.50;99.90;;;;;;4957759;28;20042;-84
2022/10/24 10:34:14;;;;;;;66.28;4.20;;;17.50;99.90;;;;;;4954577;28;20126;-84
2022/10/24 10:36:50;;;;;;;7.68;0.47;;;17.70;99.90;;;;;;4963126;28;20066;-85
2022/10/24 10:39:41;;;;;;;11.32;1.83;;;17.90;99.90;;;;;;4958448;28;20046;-84
2022/10/24 10:42:16;;;;;;;9.57;1.02;;;17.90;99.90;;;;;;4948590;28;20482;-83
2022/10/24 10:45:13;;;;;;;10.57;1.40;;;17.80;99.90;;;;;;4967273;28;20046;-84
2022/10/24 10:48:18;;;;;;;7.25;1.10;;;17.70;99.90;;;;;;4965794;28;20089;-84
2022/10/24 10:50:58;;;;;;;6.78;0.88;;;17.70;99.90;;;;;;4962200;28;20129;-84
2022/10/24 10:53:41;;;;;;;16.85;1.77;;;17.60;99.90;;;;;;4953202;28;20042;-84
2022/10/24 10:56:10;;;;;;;5.45;0.63;;;17.50;99.90;;;;;;4967500;28;20042;-85
2022/10/24 10:58:47;;;;;;;3.20;0.65;;;17.40;99.90;;;;;;4960835;28;20137;-84
2022/10/24 11:01:16;;;;;;;8.45;0.80;;;17.40;99.90;;;;;;4962596;28;20055;-84
2022/10/24 11:03:51;;;;;;;6.03;0.73;;;17.40;99.90;;;;;;4951305;28;20046;-84
2022/10/24 11:06:25;;;;;;;6.75;0.95;;;17.40;99.90;;;;;;4950571;28;20043;-84
2022/10/24 11:09:14;;;;;;;21.98;1.30;;;17.70;99.90;;;;;;4947973;28;20158;-84
2022/10/24 11:11:45;;;;;;;4.20;0.85;;;17.80;99.90;;;;;;4981376;28;20072;-84
2022/10/24 11:14:20;;;;;;;7.13;1.45;;;18.00;99.90;;;;;;4950310;28;20034;-84
2022/10/24 11:16:48;;;;;;;6.72;1.52;;;18.30;99.90;;;;;;4967442;28;20491;-84
2022/10/24 11:19:31;;;;;;;6.10;1.10;;;18.40;99.90;;;;;;4965739;28;20375;-84
2022/10/24 11:22:01;;;;;;;13.32;1.23;;;18.40;99.90;;;;;;4950992;28;20073;-84
2022/10/24 11:24:32;;;;;;;14.40;0.88;;;18.20;99.90;;;;;;4948387;28;20042;-84
2022/10/24 11:27:20;;;;;;;5.93;0.85;;;18.30;99.90;;;;;;4944316;28;20046;-84
2022/10/24 11:29:59;;;;;;;;;;;18.20;99.90;;;;;;5101300;27;20909;-83
2022/10/24 11:32:56;;;;;;;6.57;1.05;;;18.40;99.90;;;;;;5080012;28;19953;-83
2022/10/24 11:35:32;;;;;;;3.47;0.68;;;18.50;99.90;;;;;;5099963;28;20842;-83
2022/10/24 11:38:17;;;;;;;;;;;18.50;99.90;;;;;;5091713;28;20811;-83
2022/10/24 11:40:46;;;;;;;6.90;0.68;;;18.60;99.90;;;;;;5072238;28;19916;-82
2022/10/24 11:43:15;;;;;;;9.20;1.00;;;18.40;99.90;;;;;;5100173;28;20506;-83
2022/10/24 11:45:43;;;;;;;3.40;1.10;;;18.20;99.90;;;;;;5088306;28;20104;-83
2022/10/24 11:48:21;;;;;;;9.40;1.25;;;18.10;99.90;;;;;;5081782;28;20059;-83
2022/10/24 11:50:57;;;;;;;23.05;2.33;;;18.10;99.90;;;;;;5078908;28;20047;-83
2022/10/24 11:53:44;;;;;;;7.38;0.60;;;18.00;99.90;;;;;;5095039;28;20035;-83
2022/10/24 11:56:41;;;;;;;7.80;0.80;;;18.20;99.90;;;;;;5075162;28;20451;-83
2022/10/24 11:59:14;;;;;;;8.48;0.98;;;18.20;99.90;;;;;;5090768;28;20083;-83
2022/10/24 12:01:50;;;;;;;7.43;0.68;;;18.30;99.90;;;;;;5080036;28;20032;-82
2022/10/24 12:04:31;;;;;;;6.05;0.50;;;18.40;99.90;;;;;;5074542;28;20565;-83
2022/10/24 12:07:22;;;;;;;7.03;0.60;;;18.50;99.90;;;;;;5079581;28;20182;-83
2022/10/24 12:10:25;;;;;;;14.18;1.05;;;18.40;99.90;;;;;;5077955;28;20205;-83
2022/10/24 12:13:22;;;;;;;8.15;0.95;;;18.30;99.90;;;;;;5076481;28;20669;-82
2022/10/24 12:16:03;;;;;;;10.48;0.93;;;18.10;99.90;;;;;;5084914;28;20040;-82
2022/10/24 12:18:32;;;;;;;6.35;0.82;;;18.00;99.90;;;;;;5094650;28;20036;-83
2022/10/24 12:21:04;;;;;;;13.50;1.63;;;17.90;99.90;;;;;;5089016;28;20055;-83
2022/10/24 12:23:31;;;;;;;8.73;0.80;;;17.90;99.90;;;;;;5097300;28;20502;-82
2022/10/24 12:26:17;;;;;;;8.32;0.63;;;17.80;99.90;;;;;;5076622;28;20602;-83
2022/10/24 12:28:53;;;;;;;4.47;0.57;;;17.80;99.90;;;;;;5081890;28;20617;-83
2022/10/24 12:31:21;;;;;;;6.63;0.70;;;17.90;99.90;;;;;;5091291;28;20531;-83
2022/10/24 12:34:15;;;;;;;4.72;0.70;;;18.00;99.90;;;;;;5078438;28;20048;-84
2022/10/24 12:37:08;;;;;;;9.23;0.93;;;18.20;99.90;;;;;;5076401;28;20032;-84
2022/10/24 12:39:38;;;;;;;8.75;0.93;;;18.30;99.90;;;;;;5074935;28;20044;-82
2022/10/24 12:42:11;;;;;;;11.57;1.65;;;18.30;99.90;;;;;;5078478;28;20044;-83
2022/10/24 12:44:41;;;;;;;4.10;0.73;;;18.30;99.90;;;;;;5066626;28;20120;-85
2022/10/24 12:47:41;;;;;;;6.65;0.73;;;18.10;99.90;;;;;;5075588;28;20104;-84
2022/10/24 12:50:26;;;;;;;7.20;0.75;;;18.10;99.90;;;;;;5052810;28;20033;-83
2022/10/24 12:53:14;;;;;;;9.02;0.73;;;18.80;99.90;;;;;;5070817;28;20051;-84
2022/10/24 12:55:40;;;;;;;17.27;1.20;;;18.10;99.90;;;;;;5074431;28;20075;-84
2022/10/24 12:58:28;;;;;;;4.68;0.80;;;18.00;99.90;;;;;;5065020;28;20040;-81
2022/10/24 13:01:00;;;;;;;4.18;0.52;;;17.80;99.90;;;;;;5081664;28;20044;-83
2022/10/24 13:03:38;;;;;;;5.80;0.77;;;17.60;99.90;;;;;;5060666;28;20517;-84
2022/10/24 13:06:45;;;;;;;4.45;0.60;;;17.50;99.90;;;;;;5059956;28;20086;-84
2022/10/24 13:09:14;;;;;;;8.18;0.93;;;17.40;99.90;;;;;;5060807;28;20044;-84
2022/10/24 13:11:39;;;;;;;6.78;0.80;;;17.20;99.90;;;;;;5079714;28;20067;-84
2022/10/24 13:14:17;;;;;;;9.02;1.02;;;17.20;99.90;;;;;;5079300;28;20044;-84
2022/10/24 13:17:21;;;;;;;7.10;1.10;;;17.20;99.90;;;;;;5060758;28;20127;-84
2022/10/24 13:20:00;;;;;;;5.38;0.82;;;17.10;99.90;;;;;;5060291;28;20068;-84